Time;durP1;ratioP1;P1;durP2;ratioP2;P2;SDS_P1;SDS_P2;PMS_P1;PMS_P2;Temp;Humidity;BMP_temperature;BMP_pressure;BME280_temperature;BME280_humidity;BME280_pressure;Samples;Min_cycle;Max_cycle;Signal;HPM_P1;HPM_P2
2022/05/13 00:02:00;;;;;;;19.12;8.30;;;;;;;16.93;66.93;100154.33;1761720;81;21005;-56
2022/05/13 00:04:29;;;;;;;19.67;8.50;;;;;;;16.89;66.41;100162.79;1761717;81;21410;-57
2022/05/13 00:06:57;;;;;;;23.40;8.40;;;;;;;16.82;66.71;100165.39;1738667;81;20993;-56
2022/05/13 00:09:56;;;;;;;22.93;8.23;;;;;;;16.78;67.05;100171.42;1761676;81;21402;-56
2022/05/13 00:11:57;;;;;;;18.37;8.28;;;;;;;16.77;67.25;100173.05;1761981;81;21021;-56
2022/05/13 00:14:25;;;;;;;16.27;8.43;;;;;;;16.74;67.26;100179.91;1761796;81;21057;-56
2022/05/13 00:16:54;;;;;;;19.27;9.15;;;;;;;16.71;67.13;100183.70;1761754;81;21021;-55
2022/05/13 00:19:22;;;;;;;12.07;6.62;;;;;;;16.66;67.25;100183.05;1761712;81;20990;-56
2022/05/13 00:21:51;;;;;;;15.35;6.50;;;;;;;16.59;66.24;100189.22;1761667;81;20970;-55
2022/05/13 00:24:19;;;;;;;14.53;5.70;;;;;;;16.45;66.13;100182.27;1761744;81;21009;-56
2022/05/13 00:26:48;;;;;;;13.62;4.90;;;;;;;16.37;66.01;100184.85;1761700;81;21008;-55
2022/05/13 00:29:16;;;;;;;13.40;5.45;;;;;;;16.30;65.47;100190.20;1761767;81;20993;-56
2022/05/13 00:31:45;;;;;;;12.30;5.28;;;;;;;16.23;64.99;100199.13;1761713;81;21016;-56
2022/05/13 00:34:14;;;;;;;12.07;4.83;;;;;;;16.19;65.24;100200.15;1761693;81;20985;-56
2022/05/13 00:36:42;;;;;;;10.80;4.20;;;;;;;16.18;65.00;100199.84;1761633;81;20989;-56
2022/05/13 00:39:11;;;;;;;13.43;4.40;;;;;;;16.12;64.19;100200.26;1761673;81;21022;-56
2022/05/13 00:41:41;;;;;;;9.15;3.87;;;;;;;16.06;64.15;100206.74;1761639;81;21415;-56
2022/05/13 00:44:09;;;;;;;7.70;3.40;;;;;;;16.01;63.20;100198.33;1761746;81;21406;-56
2022/05/13 00:46:38;;;;;;;7.60;3.50;;;;;;;15.94;62.93;100195.38;1761651;81;20986;-56
2022/05/13 00:49:10;;;;;;;8.55;3.45;;;;;;;15.87;62.43;100201.55;1761638;81;20985;-56
2022/05/13 00:51:42;;;;;;;8.98;3.10;;;;;;;15.82;61.84;100203.10;1761722;81;21328;-56
2022/05/13 00:54:13;;;;;;;7.17;2.60;;;;;;;15.77;61.21;100202.97;1761696;81;21381;-56
2022/05/13 00:56:45;;;;;;;5.97;2.52;;;;;;;15.71;59.94;100216.89;1761642;81;20970;-57
2022/05/13 00:59:21;;;;;;;5.83;2.10;;;;;;;15.64;59.46;100223.05;1761674;81;21425;-56
2022/05/13 01:01:50;;;;;;;3.67;2.10;;;;;;;15.57;58.86;100214.80;1761978;81;21428;-56
2022/05/13 01:04:19;;;;;;;5.37;2.50;;;;;;;15.53;59.13;100216.34;1761717;81;20970;-56
2022/05/13 01:06:50;;;;;;;3.77;1.92;;;;;;;15.51;58.84;100211.05;1761631;81;21002;-56
2022/05/13 01:09:19;;;;;;;4.08;1.70;;;;;;;15.44;58.41;100212.23;1738579;81;20997;-55
2022/05/13 01:11:52;;;;;;;3.40;1.70;;;;;;;15.39;57.40;100214.31;1761717;81;21002;-55
2022/05/13 01:14:25;;;;;;;4.70;1.47;;;;;;;15.34;57.28;100210.03;1761847;81;20958;-56
2022/05/13 01:19:40;;;;;;;2.92;1.20;;;;;;;15.29;57.21;100216.79;1761692;81;20973;-56
2022/05/13 01:22:15;;;;;;;3.42;1.50;;;;;;;15.27;56.61;100219.48;1761702;81;20994;-56
2022/05/13 01:24:43;;;;;;;3.75;1.30;;;;;;;15.22;56.47;100215.50;1761491;81;20986;-57
2022/05/13 01:27:12;;;;;;;2.08;1.20;;;;;;;15.19;56.46;100212.36;1761693;81;21005;-56
2022/05/13 01:29:41;;;;;;;2.87;1.30;;;;;;;15.15;56.38;100221.64;1761655;81;21077;-56
2022/05/13 01:32:09;;;;;;;2.45;1.20;;;;;;;15.15;56.66;100219.42;1761665;81;20966;-56
2022/05/13 01:34:40;;;;;;;1.72;1.07;;;;;;;15.14;56.38;100219.11;1761649;81;21005;-57
2022/05/13 01:37:09;;;;;;;4.67;1.27;;;;;;;15.11;56.11;100225.09;1761636;81;20970;-57
2022/05/13 01:39:39;;;;;;;2.87;1.15;;;;;;;15.09;55.98;100223.11;1761663;81;21417;-56
2022/05/13 01:42:08;;;;;;;4.22;1.00;;;;;;;15.07;56.18;100224.72;1760547;81;21038;-56
2022/05/13 01:44:37;;;;;;;3.87;1.15;;;;;;;15.06;55.91;100234.61;1759020;81;21033;-56
2022/05/13 01:47:06;;;;;;;4.90;1.20;;;;;;;15.01;55.16;100232.54;1759099;81;21002;-56
2022/05/13 01:49:35;;;;;;;3.40;1.07;;;;;;;14.95;55.53;100227.07;1758869;81;21462;-56
2022/05/13 01:52:05;;;;;;;2.45;1.10;;;;;;;14.91;55.36;100227.53;1758954;81;21002;-56
2022/05/13 01:54:35;;;;;;;2.62;1.05;;;;;;;14.90;55.45;100236.04;1759151;81;21053;-55
2022/05/13 01:57:04;;;;;;;3.37;1.27;;;;;;;14.88;55.67;100234.05;1758922;81;21010;-55
2022/05/13 01:59:34;;;;;;;3.20;1.17;;;;;;;14.86;56.07;100236.19;1758988;81;20989;-55
2022/05/13 02:02:04;;;;;;;2.58;1.22;;;;;;;14.85;56.09;100238.11;1758976;81;21001;-55
2022/05/13 02:04:32;;;;;;;5.17;1.82;;;;;;;14.85;56.24;100232.59;1759148;81;21010;-54
2022/05/13 02:07:01;;;;;;;5.53;2.10;;;;;;;14.87;56.21;100237.88;1758946;81;20990;-56
2022/05/13 02:09:30;;;;;;;4.78;2.30;;;;;;;14.87;56.41;100245.62;1759001;81;21013;-56
2022/05/13 02:12:00;;;;;;;6.75;2.60;;;;;;;14.88;56.56;100250.06;1711124;84;21084;-56
2022/05/13 02:14:30;;;;;;;12.65;3.15;;;;;;;14.86;56.81;100249.98;1711044;84;21039;-56
2022/05/13 02:16:58;;;;;;;9.55;2.80;;;;;;;14.84;56.91;100252.97;1711204;84;21007;-56
2022/05/13 02:19:27;;;;;;;19.75;4.03;;;;;;;14.82;56.98;100246.84;1711247;84;20996;-56
2022/05/13 02:21:56;;;;;;;7.78;2.92;;;;;;;14.78;56.93;100251.13;1711194;84;21015;-55
2022/05/13 02:24:25;;;;;;;9.33;3.22;;;;;;;14.73;57.27;100253.73;1711100;84;21454;-57
2022/05/13 02:26:53;;;;;;;8.50;3.30;;;;;;;14.69;57.29;100258.02;1711059;84;21007;-56
2022/05/13 02:29:23;;;;;;;7.00;2.80;;;;;;;14.64;57.56;100253.72;1719108;81;21465;-56
2022/05/13 02:31:51;;;;;;;7.85;3.00;;;;;;;14.61;57.60;100267.13;1758940;81;21021;-56
2022/05/13 02:34:20;;;;;;;6.53;2.60;;;;;;;14.55;58.28;100268.34;1759123;81;21438;-56
2022/05/13 02:36:48;;;;;;;7.60;2.60;;;;;;;14.51;58.71;100262.12;1758975;81;21033;-57
2022/05/13 02:39:17;;;;;;;6.87;2.47;;;;;;;14.49;59.27;100262.89;1758985;81;21037;-56
2022/05/13 02:41:46;;;;;;;5.78;2.52;;;;;;;14.49;59.84;100266.49;1759025;81;21457;-56
2022/05/13 02:44:14;;;;;;;7.62;2.50;;;;;;;14.49;60.29;100262.89;1758964;81;21001;-56
2022/05/13 02:46:43;;;;;;;9.85;2.98;;;;;;;14.48;60.70;100262.58;1758997;81;21357;-56
2022/05/13 02:49:11;;;;;;;11.57;2.80;;;;;;;14.47;61.11;100263.66;1758880;81;21429;-55
2022/05/13 02:51:40;;;;;;;6.65;2.50;;;;;;;14.44;61.27;100269.62;1758916;81;20981;-57
2022/05/13 02:54:09;;;;;;;6.03;2.77;;;;;;;14.44;61.59;100271.00;1758892;81;20994;-56
2022/05/13 02:56:38;;;;;;;6.42;2.77;;;;;;;14.42;61.85;100272.60;1758905;81;21022;-57
2022/05/13 02:59:07;;;;;;;9.40;2.80;;;;;;;14.40;61.91;100272.48;1758876;81;20978;-58
2022/05/13 03:01:38;;;;;;;3.85;2.30;;;;;;;14.37;61.90;100274.31;1758934;81;20970;-55
2022/05/13 03:04:06;;;;;;;4.60;2.15;;;;;;;14.33;61.92;100278.59;1759066;81;21040;-56
2022/05/13 03:06:35;;;;;;;9.58;2.45;;;;;;;14.27;61.96;100276.17;1758956;81;21437;-56
2022/05/13 03:09:04;;;;;;;10.63;2.72;;;;;;;14.26;62.37;100278.08;1759323;81;20990;-56
2022/05/13 03:11:33;;;;;;;8.68;2.87;;;;;;;14.23;62.44;100274.40;1759078;81;20986;-56
2022/05/13 03:14:01;;;;;;;6.60;2.60;;;;;;;14.22;62.65;100278.75;1759094;81;21021;-55
2022/05/13 03:16:30;;;;;;;8.23;2.77;;;;;;;14.22;62.54;100280.98;1759080;81;20990;-56
2022/05/13 03:18:59;;;;;;;7.90;2.80;;;;;;;14.24;62.21;100284.36;1759006;81;21452;-56
2022/05/13 03:21:27;;;;;;;5.70;3.10;;;;;;;14.25;61.92;100287.42;1759019;81;20994;-55
2022/05/13 03:23:58;;;;;;;6.22;2.67;;;;;;;14.27;61.49;100288.58;1759037;81;20962;-56
2022/05/13 03:26:26;;;;;;;15.68;3.25;;;;;;;14.27;61.24;100293.55;1759055;81;20994;-57
2022/05/13 03:28:55;;;;;;;4.97;2.50;;;;;;;14.25;61.25;100297.06;1759022;81;21464;-55
2022/05/13 03:31:23;;;;;;;10.25;3.20;;;;;;;14.24;61.30;100295.38;1759109;81;21368;-57
2022/05/13 03:33:52;;;;;;;8.58;2.80;;;;;;;14.25;61.11;100295.69;1759233;81;21013;-57
2022/05/13 03:36:21;;;;;;;14.05;4.30;;;;;;;14.27;61.03;100296.30;1759122;81;20990;-56
2022/05/13 03:38:49;;;;;;;9.00;2.90;;;;;;;14.26;60.95;100293.24;1758985;81;21014;-55
2022/05/13 03:41:19;;;;;;;7.62;2.60;;;;;;;14.29;61.28;100294.17;1759068;81;21496;-56
2022/05/13 03:43:47;;;;;;;10.20;3.20;;;;;;;14.34;61.27;100300.42;1761248;81;21029;-55
2022/05/13 03:46:16;;;;;;;10.93;3.15;;;;;;;14.39;61.28;100309.39;1761649;81;21045;-58
2022/05/13 03:48:46;;;;;;;9.33;2.98;;;;;;;14.39;61.19;100307.48;1761637;81;21006;-56
2022/05/13 03:51:14;;;;;;;12.70;3.02;;;;;;;14.42;61.28;100302.05;1761815;81;20986;-54
2022/05/13 03:53:43;;;;;;;14.47;3.80;;;;;;;14.45;61.40;100300.25;1761791;81;21001;-56
2022/05/13 03:56:12;;;;;;;13.95;2.95;;;;;;;14.48;61.36;100305.31;1761749;81;20970;-56
2022/05/13 03:58:42;;;;;;;8.68;2.62;;;;;;;14.53;61.50;100306.33;1761604;81;21405;-56
2022/05/13 04:01:11;;;;;;;6.15;2.87;;;;;;;14.56;61.10;100309.16;1761740;81;20993;-55
2022/05/13 04:03:39;;;;;;;6.40;3.15;;;;;;;14.56;60.99;100309.16;1761727;81;21433;-55
2022/05/13 04:08:57;;;;;;;5.90;2.58;;;;;;;14.64;61.18;100318.53;1761721;81;21049;-56
2022/05/13 04:11:31;;;;;;;9.95;2.67;;;;;;;14.67;61.15;100319.45;1761697;81;21023;-56
2022/05/13 04:16:46;;;;;;;8.95;2.90;;;;;;;14.72;61.40;100331.19;1761974;81;20994;-56
2022/05/13 04:19:15;;;;;;;10.58;3.00;;;;;;;14.76;61.54;100327.75;1761672;81;21406;-56
2022/05/13 04:21:44;;;;;;;10.53;3.70;;;;;;;14.83;61.33;100330.44;1761655;81;21405;-56
2022/05/13 04:24:19;;;;;;;7.60;3.00;;;;;;;14.87;61.14;100329.76;1761710;81;20989;-56
2022/05/13 04:26:47;;;;;;;8.48;4.10;;;;;;;14.93;61.18;100334.90;1761786;81;21037;-56
2022/05/13 04:29:16;;;;;;;11.68;4.12;;;;;;;14.99;61.02;100338.70;1761677;81;20997;-56
2022/05/13 04:31:44;;;;;;;7.22;4.60;;;;;;;15.02;60.93;100339.62;1761676;81;21406;-56
2022/05/13 04:34:13;;;;;;;11.30;4.62;;;;;;;15.06;60.90;100333.41;1761692;81;20958;-57
2022/05/13 04:36:43;;;;;;;12.10;4.70;;;;;;;15.07;60.24;100333.72;1761737;81;21005;-56
2022/05/13 04:39:13;;;;;;;12.20;4.30;;;;;;;15.08;60.17;100349.74;1761666;81;21002;-57
2022/05/13 04:44:29;;;;;;;14.40;5.53;;;;;;;15.12;59.87;100343.53;1759233;81;21010;-56
2022/05/13 04:46:58;;;;;;;14.40;4.67;;;;;;;15.12;60.02;100339.40;1758929;81;21370;-57
2022/05/13 04:49:26;;;;;;;14.83;5.12;;;;;;;15.19;60.03;100344.84;1758926;81;20986;-57
2022/05/13 04:51:55;;;;;;;13.20;5.17;;;;;;;15.26;59.87;100332.34;1759066;81;21025;-56
2022/05/13 04:54:25;;;;;;;20.88;6.40;;;;;;;15.33;59.76;100332.57;1759077;81;21061;-56
2022/05/13 04:56:53;;;;;;;17.77;5.90;;;;;;;15.38;59.66;100329.97;1758906;81;21049;-56
2022/05/13 04:59:22;;;;;;;12.13;4.70;;;;;;;15.46;59.66;100345.37;1758965;81;20974;-57
2022/05/13 05:01:51;;;;;;;7.60;3.80;;;;;;;15.53;59.55;100343.38;1758980;81;20993;-56
2022/05/13 05:04:19;;;;;;;11.28;4.65;;;;;;;15.62;58.43;100338.44;1758979;81;21006;-58
2022/05/13 05:06:48;;;;;;;10.98;3.72;;;;;;;15.67;58.24;100341.35;1759110;81;21033;-56
2022/05/13 05:09:16;;;;;;;9.88;3.40;;;;;;;15.72;57.63;100338.20;1758964;81;21057;-57
2022/05/13 05:11:45;;;;;;;11.97;4.58;;;;;;;15.80;57.03;100335.65;1758984;81;21453;-57
2022/05/13 05:14:14;;;;;;;8.63;3.42;;;;;;;15.97;56.84;100337.22;1759086;81;21005;-57
2022/05/13 05:16:44;;;;;;;11.15;3.65;;;;;;;16.19;56.48;100343.90;1758928;81;20997;-56
2022/05/13 05:19:13;;;;;;;6.80;2.98;;;;;;;16.48;55.76;100347.73;1758965;81;21010;-57
2022/05/13 05:21:42;;;;;;;8.03;3.00;;;;;;;16.77;54.79;100350.98;1758989;81;21045;-56
2022/05/13 05:24:11;;;;;;;8.70;2.92;;;;;;;17.06;53.54;100351.98;1759326;81;21477;-56
2022/05/13 05:26:39;;;;;;;9.03;2.33;;;;;;;17.35;52.67;100358.98;1758921;81;20970;-56
2022/05/13 05:29:08;;;;;;;6.50;1.57;;;;;;;17.59;51.24;100352.89;1758948;81;20994;-55
2022/05/13 05:31:37;;;;;;;5.17;1.35;;;;;;;17.82;48.59;100354.23;1759025;81;21005;-56
2022/05/13 05:34:06;;;;;;;5.95;1.17;;;;;;;17.95;47.30;100356.70;1758955;81;21021;-56
2022/05/13 05:36:35;;;;;;;4.75;1.30;;;;;;;18.13;45.22;100338.19;1758899;81;20980;-57
2022/05/13 05:39:04;;;;;;;6.12;1.20;;;;;;;18.30;44.56;100337.70;1758914;81;20954;-56
2022/05/13 05:41:32;;;;;;;4.87;1.95;;;;;;;18.45;44.77;100337.12;1759090;81;20974;-57
2022/05/13 05:44:01;;;;;;;8.83;1.85;;;;;;;18.70;44.61;100338.97;1758896;81;21029;-56
2022/05/13 05:46:29;;;;;;;4.45;2.35;;;;;;;18.86;43.95;100329.82;1761268;81;21045;-55
2022/05/13 05:48:58;;;;;;;6.22;1.67;;;;;;;18.93;43.69;100327.71;1761529;81;21013;-56
2022/05/13 05:51:26;;;;;;;3.25;1.32;;;;;;;18.99;43.58;100331.41;1761601;81;20994;-56
2022/05/13 05:59:28;;;;;;;10.25;2.22;;;;;;;19.07;42.17;100326.80;1761707;81;21413;-57
2022/05/13 06:01:57;;;;;;;4.62;2.10;;;;;;;19.04;42.44;100341.75;1761870;81;21481;-57
2022/05/13 06:04:25;;;;;;;5.17;1.70;;;;;;;19.02;42.31;100346.17;1761640;81;20982;-57
2022/05/13 06:06:54;;;;;;;3.87;1.60;;;;;;;19.06;42.55;100352.05;1761679;81;20982;-56
2022/05/13 06:09:23;;;;;;;4.85;1.80;;;;;;;19.18;41.99;100356.41;1761630;81;20978;-56
2022/05/13 06:11:51;;;;;;;6.42;1.90;;;;;;;19.27;42.21;100371.54;1761538;81;20994;-58
2022/05/13 06:14:20;;;;;;;6.37;1.70;;;;;;;19.39;42.72;100371.98;1761609;81;20997;-56
2022/05/13 06:16:48;;;;;;;3.98;1.90;;;;;;;19.57;42.09;100368.95;1761610;81;20970;-57
2022/05/13 06:19:17;;;;;;;4.95;1.95;;;;;;;19.74;41.74;100377.23;1761677;81;21001;-56
2022/05/13 06:21:47;;;;;;;4.45;1.67;;;;;;;19.94;41.67;100385.83;1761689;81;21084;-58
2022/05/13 06:24:18;;;;;;;3.70;1.72;;;;;;;20.21;41.56;100370.03;1761666;81;21394;-57
2022/05/13 06:26:49;;;;;;;5.08;1.67;;;;;;;20.47;40.23;100368.92;1761685;81;20970;-58
2022/05/13 06:29:20;;;;;;;3.90;1.42;;;;;;;20.68;38.61;100365.77;1761566;81;20986;-59
2022/05/13 06:31:48;;;;;;;5.53;1.30;;;;;;;20.82;39.01;100378.18;1761615;81;20966;-58
2022/05/13 06:34:17;;;;;;;9.25;1.90;;;;;;;20.93;37.50;100374.92;1761790;81;21001;-58
2022/05/13 06:36:46;;;;;;;6.70;1.60;;;;;;;20.93;37.67;100374.38;1761632;81;20974;-58
2022/05/13 06:39:14;;;;;;;5.35;1.42;;;;;;;21.02;37.43;100383.91;1761651;81;21864;-58
2022/05/13 06:41:43;;;;;;;6.70;1.50;;;;;;;21.02;37.24;100378.89;1761779;81;21009;-57
2022/05/13 06:44:12;;;;;;;9.53;2.33;;;;;;;21.05;37.71;100385.33;1761712;81;21010;-57
2022/05/13 06:46:41;;;;;;;5.15;1.60;;;;;;;21.14;37.68;100377.59;1759378;81;21037;-57
2022/05/13 06:49:11;;;;;;;6.33;1.50;;;;;;;21.27;37.16;100372.13;1759035;81;21053;-57
2022/05/13 06:51:40;;;;;;;5.40;1.92;;;;;;;21.36;37.11;100366.34;1758990;81;20969;-58
2022/05/13 06:54:10;;;;;;;3.90;1.62;;;;;;;21.38;37.09;100369.69;1759119;81;21005;-57
2022/05/13 06:56:41;;;;;;;3.45;1.30;;;;;;;21.29;37.17;100367.13;1759063;81;21421;-57
2022/05/13 06:59:10;;;;;;;7.12;1.42;;;;;;;21.25;36.67;100370.72;1759432;81;21010;-56
2022/05/13 07:01:41;;;;;;;3.22;1.62;;;;;;;21.23;36.79;100373.78;1758990;81;21434;-56
2022/05/13 07:04:10;;;;;;;4.60;2.02;;;;;;;21.15;36.26;100366.73;1758939;81;20994;-56
2022/05/13 07:06:39;;;;;;;3.33;1.40;;;;;;;21.00;36.33;100371.36;1758981;81;20946;-57
2022/05/13 07:09:07;;;;;;;7.97;1.60;;;;;;;20.88;36.77;100377.11;1758998;81;21060;-57
2022/05/13 07:11:36;;;;;;;6.20;1.77;;;;;;;20.85;37.01;100376.26;1759013;81;21002;-56
2022/05/13 07:14:07;;;;;;;8.40;2.00;;;;;;;20.83;36.65;100378.47;1759055;81;21050;-57
2022/05/13 07:16:36;;;;;;;5.22;1.80;;;;;;;20.81;36.51;100380.13;1758912;81;21390;-57
2022/05/13 07:21:46;;;;;;;6.08;2.30;;;;;;;21.08;36.63;100377.83;1759029;81;21010;-56
2022/05/13 07:24:16;;;;;;;7.62;2.27;;;;;;;21.32;36.26;100362.97;1758993;81;20985;-56
2022/05/13 07:26:45;;;;;;;3.55;1.67;;;;;;;21.53;36.25;100375.09;1758958;81;21025;-57
2022/05/13 07:29:13;;;;;;;5.47;2.17;;;;;;;21.74;35.66;100390.27;1758968;81;21018;-57
2022/05/13 07:31:42;;;;;;;6.87;1.70;;;;;;;21.82;35.17;100376.35;1758979;81;20994;-56
2022/05/13 07:34:11;;;;;;;4.17;1.95;;;;;;;21.86;35.24;100378.04;1759276;81;21020;-56
2022/05/13 07:36:41;;;;;;;5.92;2.75;;;;;;;21.87;34.84;100373.58;1758918;81;20990;-56
2022/05/13 07:41:56;;;;;;;5.78;1.50;;;;;;;21.75;35.11;100378.55;1759120;81;21398;-56
2022/05/13 07:44:25;;;;;;;6.83;1.32;;;;;;;21.71;35.17;100390.81;1759013;81;20982;-58
2022/05/13 07:46:54;;;;;;;4.12;1.45;;;;;;;21.53;34.93;100378.73;1760987;81;21045;-57
2022/05/13 07:49:22;;;;;;;3.65;1.40;;;;;;;21.32;35.58;100373.56;1769601;79;21380;-58
2022/05/13 07:51:51;;;;;;;6.12;1.60;;;;;;;21.14;35.89;100380.38;1792018;80;20972;-58
2022/05/13 07:54:20;;;;;;;5.50;1.40;;;;;;;20.99;36.25;100385.84;1779027;79;20968;-57
2022/05/13 07:56:49;;;;;;;5.12;1.45;;;;;;;20.84;37.20;100387.11;1777151;80;20982;-57
2022/05/13 07:59:17;;;;;;;3.90;1.45;;;;;;;20.71;36.92;100393.93;1792075;80;21464;-60
2022/05/13 08:01:47;;;;;;;6.20;1.60;;;;;;;20.64;36.92;100398.04;1792798;79;21070;-58
2022/05/13 08:04:15;;;;;;;4.90;1.10;;;;;;;20.41;36.63;100391.70;1792846;80;21012;-58
2022/05/13 08:06:44;;;;;;;5.87;1.30;;;;;;;20.23;36.60;100394.81;1792703;80;21012;-57
2022/05/13 08:09:13;;;;;;;4.22;1.07;;;;;;;20.03;36.95;100408.46;1792738;80;21041;-57
2022/05/13 08:11:44;;;;;;;5.47;1.80;;;;;;;19.80;36.68;100400.67;1792773;80;20969;-58
2022/05/13 08:14:12;;;;;;;5.35;1.20;;;;;;;19.68;37.27;100398.57;1792868;80;21004;-57
2022/05/13 08:16:41;;;;;;;1.92;1.17;;;;;;;19.80;37.41;100393.72;1792848;79;21076;-60
2022/05/13 08:19:10;;;;;;;3.40;1.00;;;;;;;19.95;37.37;100396.69;1792833;79;21027;-59
2022/05/13 08:21:40;;;;;;;4.80;1.42;;;;;;;20.05;37.29;100389.56;1792761;80;20968;-59
2022/05/13 08:24:09;;;;;;;6.55;1.07;;;;;;;20.14;37.01;100388.00;1792593;80;21117;-58
2022/05/13 08:26:38;;;;;;;3.52;1.10;;;;;;;20.19;36.73;100381.13;1792844;80;20960;-58
2022/05/13 08:29:07;;;;;;;3.50;1.00;;;;;;;20.22;36.49;100381.45;1792728;79;21008;-58
2022/05/13 08:31:35;;;;;;;3.37;1.27;;;;;;;20.18;36.47;100384.47;1792741;80;21407;-58
2022/05/13 08:34:04;;;;;;;3.55;1.27;;;;;;;20.11;36.48;100383.80;1792852;80;20988;-58
2022/05/13 08:36:33;;;;;;;3.42;1.10;;;;;;;20.02;36.87;100381.74;1792768;80;21035;-57
2022/05/13 08:39:02;;;;;;;3.98;1.00;;;;;;;19.99;37.05;100379.48;1792754;80;21368;-58
2022/05/13 08:42:08;;;;;;;4.35;1.30;;;;;;;19.89;36.82;100375.48;1792811;80;20976;-58
2022/05/13 08:44:37;;;;;;;2.05;1.00;;;;;;;19.80;37.54;100385.38;1792799;79;20984;-59
2022/05/13 08:47:18;;;;;;;2.83;1.50;;;;;;;19.66;37.40;100377.14;1774903;80;21055;-59
2022/05/13 08:49:58;;;;;;;3.33;1.27;;;;;;;19.60;37.81;100374.84;1777873;80;20992;-58
2022/05/13 08:55:26;;;;;;;5.28;1.37;;;;;;;19.53;37.83;100385.31;1800984;80;21433;-58
2022/05/13 08:57:55;;;;;;;3.62;1.00;;;;;;;19.62;38.33;100371.80;1774153;80;21390;-58
2022/05/13 09:00:49;;;;;;;1.50;0.70;;;;;;;19.87;36.76;100370.73;1747487;82;20989;-58
2022/05/13 09:03:32;;;;;;;1.62;1.10;;;;;;;20.00;36.29;100361.70;1747374;82;21005;-58
2022/05/13 09:06:15;;;;;;;4.40;0.98;;;;;;;20.01;36.46;100372.56;1747380;82;21006;-58
2022/05/13 09:08:46;;;;;;;6.87;1.00;;;;;;;20.10;36.51;100377.11;1772192;80;21028;-58
2022/05/13 09:11:32;;;;;;;4.75;0.82;;;;;;;20.22;36.49;100365.31;1784890;80;20985;-58
2022/05/13 09:14:28;;;;;;;4.50;0.90;;;;;;;20.25;36.22;100362.00;1780395;80;20993;-59
2022/05/13 09:17:28;;;;;;;4.70;0.80;;;;;;;20.34;36.32;100360.42;1784962;80;20977;-57
2022/05/13 09:20:10;;;;;;;4.22;0.95;;;;;;;20.41;35.94;100347.16;1785158;80;21001;-64
2022/05/13 09:22:52;;;;;;;3.58;1.07;;;;;;;20.44;35.61;100357.77;1785131;80;20996;-63
2022/05/13 09:26:10;;;;;;;9.28;1.02;;;;;;;20.39;35.85;100361.89;1799120;80;21008;-63
2022/05/13 09:29:00;;;;;;;7.37;1.00;;;;;;;20.44;36.22;100356.38;1800971;80;21039;-62
2022/05/13 09:31:29;;;;;;;5.58;1.60;;;;;;;20.46;36.20;100365.31;1780988;80;20984;-63
2022/05/13 09:34:00;;;;;;;2.15;1.00;;;;;;;20.36;36.49;100360.16;1799100;79;21004;-61
2022/05/13 09:36:32;;;;;;;4.10;0.90;;;;;;;20.29;36.42;100352.02;1800976;80;21004;-62
2022/05/13 09:39:20;;;;;;;3.27;0.93;;;;;;;20.24;36.67;100353.37;1800773;79;21114;-63
2022/05/13 09:41:52;;;;;;;2.83;0.95;;;;;;;20.21;36.29;100339.42;1800826;79;20996;-63
2022/05/13 09:44:25;;;;;;;3.08;1.00;;;;;;;20.10;36.69;100338.16;1800057;79;20936;-64
2022/05/13 09:47:17;;;;;;;2.35;1.00;;;;;;;20.08;36.75;100347.32;1783076;79;21006;-63
2022/05/13 09:49:48;;;;;;;6.33;1.42;;;;;;;20.12;37.12;100342.91;1774241;80;21024;-66
2022/05/13 09:52:29;;;;;;;2.92;1.62;;;;;;;20.23;36.79;100334.99;1790029;80;20966;-66
2022/05/13 09:55:18;;;;;;;6.40;1.65;;;;;;;20.39;36.77;100336.84;1775875;80;20988;-63
2022/05/13 09:57:49;;;;;;;2.77;1.27;;;;;;;20.43;36.42;100326.03;1789480;79;20949;-64
2022/05/13 10:00:25;;;;;;;5.62;1.85;;;;;;;20.43;36.41;100346.35;1774952;80;20997;-64
2022/05/13 10:03:19;;;;;;;2.07;1.40;;;;;;;20.46;36.19;100334.69;1774853;80;21016;-66
2022/05/13 10:06:11;;;;;;;5.05;1.40;;;;;;;20.43;35.70;100333.83;1784282;79;21385;-65
2022/05/13 10:13:57;;;;;;;3.35;1.22;;;;;;;20.33;35.95;100335.09;1789909;80;20965;-65
2022/05/13 10:14:30;;;;;;;3.58;1.32;;;;;;;20.26;36.80;100321.39;1756349;80;21392;-66
2022/05/13 10:17:24;;;;;;;4.30;1.30;;;;;;;20.28;36.81;100321.13;1790049;80;20973;-64
2022/05/13 10:20:10;;;;;;;4.78;1.12;;;;;;;20.31;36.69;100330.89;1782239;80;20984;-64
2022/05/13 10:22:46;;;;;;;1.60;0.90;;;;;;;20.36;36.37;100314.24;1790047;80;20953;-63
2022/05/13 10:25:29;;;;;;;6.92;1.25;;;;;;;20.38;36.45;100320.38;1790091;80;20973;-64
2022/05/13 10:28:08;;;;;;;3.17;1.20;;;;;;;20.41;36.46;100319.33;1790163;80;21024;-64
2022/05/13 10:30:46;;;;;;;1.47;0.90;;;;;;;20.44;35.88;100322.98;1789468;80;20966;-64
2022/05/13 10:33:38;;;;;;;8.75;2.17;;;;;;;20.43;35.21;100317.12;1789403;80;21055;-63
2022/05/13 10:36:16;;;;;;;2.77;0.90;;;;;;;20.41;35.55;100322.67;1790156;80;21369;-67
2022/05/13 10:39:11;;;;;;;2.98;1.00;;;;;;;20.39;35.52;100311.80;1788981;79;20997;-64
2022/05/13 10:41:46;;;;;;;4.50;1.00;;;;;;;20.41;35.78;100323.51;1789978;80;21024;-63
2022/05/13 10:44:46;;;;;;;2.08;0.82;;;;;;;20.43;35.44;100310.16;1790108;79;20957;-63
2022/05/13 10:47:45;;;;;;;2.58;0.93;;;;;;;20.42;35.30;100301.53;1789597;79;21000;-62
2022/05/13 10:50:21;;;;;;;2.83;0.98;;;;;;;20.40;35.41;100303.73;1789582;80;21020;-65
2022/05/13 10:53:09;;;;;;;6.45;1.00;;;;;;;20.45;35.09;100291.81;1789465;79;20965;-66
2022/05/13 10:56:10;;;;;;;2.33;0.80;;;;;;;20.50;35.19;100294.08;1790414;80;20976;-66
2022/05/13 10:59:06;;;;;;;3.45;1.20;;;;;;;20.56;35.01;100300.53;1779528;80;20940;-68
2022/05/13 11:02:02;;;;;;;4.28;1.20;;;;;;;20.61;34.56;100292.77;1776934;80;20968;-70
2022/05/13 11:04:57;;;;;;;2.02;1.02;;;;;;;20.60;33.90;100286.36;1778335;80;21015;-68
2022/05/13 11:07:57;;;;;;;5.17;1.00;;;;;;;20.52;33.39;100277.95;1778368;80;21488;-68
2022/05/13 11:10:59;;;;;;;2.27;1.00;;;;;;;20.42;34.07;100280.66;1777503;81;21012;-66
2022/05/13 11:13:43;;;;;;;3.75;1.15;;;;;;;20.45;34.38;100279.28;1776970;81;20969;-73
2022/05/13 11:16:49;;;;;;;6.12;1.15;;;;;;;20.50;33.93;100275.16;1776835;81;21000;-71
2022/05/13 11:19:37;;;;;;;3.67;1.40;;;;;;;20.49;34.50;100265.96;1776741;81;20949;-69
2022/05/13 11:22:29;;;;;;;3.92;1.32;;;;;;;20.49;34.61;100265.13;1776880;81;20984;-67
2022/05/13 11:28:43;;;;;;;3.05;0.98;;;;;;;20.51;34.37;100252.62;1777128;81;20969;-68
2022/05/13 11:32:02;;;;;;;3.08;1.00;;;;;;;20.55;34.24;100255.70;1776717;80;21440;-72
2022/05/13 11:35:05;;;;;;;6.15;1.37;;;;;;;20.55;34.27;100245.96;1778692;80;21078;-67
2022/05/13 11:37:37;;;;;;;5.22;1.20;;;;;;;20.53;34.29;100255.97;1789994;80;21004;-70
2022/05/13 11:40:38;;;;;;;3.62;1.12;;;;;;;20.56;34.29;100247.09;1790209;80;21415;-69
2022/05/13 11:43:38;;;;;;;3.05;0.93;;;;;;;20.60;34.34;100250.73;1768234;79;21024;-68
2022/05/13 11:46:53;;;;;;;3.15;1.10;;;;;;;20.61;33.89;100249.06;1790034;80;20988;-70
2022/05/13 11:49:34;;;;;;;1.50;1.05;;;;;;;20.60;33.58;100238.20;1789941;80;21024;-63
2022/05/13 11:52:17;;;;;;;4.17;1.17;;;;;;;20.60;34.07;100234.86;1790125;80;20944;-65
2022/05/13 11:54:46;;;;;;;13.72;3.12;;;;;;;20.68;33.89;100240.48;1790513;79;21028;-65
2022/05/13 11:57:28;;;;;;;3.27;1.40;;;;;;;20.70;34.18;100235.48;1786971;80;21008;-70
2022/05/13 12:00:19;;;;;;;3.05;1.32;;;;;;;20.75;33.94;100235.52;1760099;81;21444;-70
2022/05/13 12:02:58;;;;;;;4.90;1.87;;;;;;;20.73;33.64;100231.61;1776925;81;21086;-68
2022/05/13 12:05:32;;;;;;;4.40;1.55;;;;;;;20.68;33.89;100230.18;1776801;79;20981;-70
2022/05/13 12:08:07;;;;;;;4.28;1.30;;;;;;;20.73;34.27;100234.95;1776862;81;21400;-71
2022/05/13 12:10:53;;;;;;;4.40;1.10;;;;;;;20.82;34.36;100232.81;1776496;80;21424;-69
2022/05/13 12:13:43;;;;;;;24.92;2.62;;;;;;;20.93;34.64;100232.31;1776743;81;21001;-72
2022/05/13 12:17:08;;;;;;;4.67;1.17;;;;;;;21.01;34.25;100233.75;1776815;81;20937;-69
2022/05/13 12:20:07;;;;;;;2.52;1.10;;;;;;;21.04;33.70;100231.81;1776883;81;20992;-69
2022/05/13 12:23:02;;;;;;;2.85;0.95;;;;;;;20.97;33.38;100219.52;1776908;80;20977;-68
2022/05/13 12:25:38;;;;;;;2.60;1.20;;;;;;;20.85;33.48;100211.94;1776923;80;21019;-68
2022/05/13 12:28:13;;;;;;;3.33;1.00;;;;;;;20.78;33.91;100205.73;1776871;81;21011;-69